Time;durP1;ratioP1;P1;durP2;ratioP2;P2;SDS_P1;SDS_P2;PMS_P1;PMS_P2;Temp;Humidity;BMP_temperature;BMP_pressure;BME280_temperature;BME280_humidity;BME280_pressure;Samples;Min_cycle;Max_cycle;Signal;HPM_P1;HPM_P2
2022/05/09 00:00:07;;;;;;;4.00;2.17;;;;;;;12.85;60.38;94899.09;5071782;28;20177;-62
2022/05/09 00:02:33;;;;;;;4.88;2.30;;;;;;;12.77;59.72;94904.91;5053717;28;20685;-61
2022/05/09 00:04:58;;;;;;;4.33;2.37;;;;;;;12.77;59.73;94915.13;5072442;28;20184;-59
2022/05/09 00:07:24;;;;;;;6.07;2.13;;;;;;;12.76;60.03;94910.97;5053771;28;20568;-60
2022/05/09 00:09:50;;;;;;;4.43;2.40;;;;;;;12.73;60.05;94907.84;5078177;28;20180;-61
2022/05/09 00:12:15;;;;;;;3.30;2.57;;;;;;;12.56;60.62;94894.06;5078654;28;20208;-60
2022/05/09 00:14:41;;;;;;;2.40;2.07;;;;;;;12.56;60.92;94901.72;5078330;28;20193;-62
2022/05/09 00:17:06;;;;;;;6.90;2.50;;;;;;;12.35;61.39;94894.22;5078394;28;20213;-62
2022/05/09 00:19:32;;;;;;;2.40;2.20;;;;;;;12.27;62.66;94903.47;5078381;28;20237;-61
2022/05/09 00:21:57;;;;;;;4.87;2.57;;;;;;;12.23;62.60;94897.84;5060350;28;20197;-60
2022/05/09 00:24:23;;;;;;;3.87;2.53;;;;;;;12.33;62.33;94903.75;5078238;28;20177;-60
2022/05/09 00:26:51;;;;;;;4.00;2.60;;;;;;;12.34;63.03;94907.09;5078375;28;20634;-60
2022/05/09 00:29:18;;;;;;;3.70;2.50;;;;;;;12.35;62.46;94908.69;5078259;28;20169;-60
2022/05/09 00:31:46;;;;;;;5.67;2.50;;;;;;;12.25;63.23;94907.88;5078203;28;20216;-60
2022/05/09 00:34:16;;;;;;;2.90;2.60;;;;;;;12.26;63.71;94906.97;5060073;28;20217;-60
2022/05/09 00:36:42;;;;;;;3.13;2.33;;;;;;;12.01;65.87;94897.28;5078091;28;20212;-63
2022/05/09 00:39:07;;;;;;;4.67;2.50;;;;;;;12.15;66.26;94909.63;5078882;28;20184;-65
2022/05/09 00:41:37;;;;;;;7.50;2.80;;;;;;;12.12;66.18;94902.28;5060202;28;20223;-61
2022/05/09 00:44:22;;;;;;;4.60;2.73;;;;;;;12.09;66.24;94917.81;5078722;28;20192;-59
2022/05/09 00:46:51;;;;;;;5.27;2.27;;;;;;;12.18;65.83;94917.03;5085646;22;20286;-60
2022/05/09 00:49:23;;;;;;;3.83;2.70;;;;;;;12.16;66.39;94919.69;5078495;28;20200;-59
2022/05/09 00:52:02;;;;;;;4.00;2.90;;;;;;;12.22;64.98;94944.63;5077999;28;20261;-60
2022/05/09 00:54:45;;;;;;;5.43;3.10;;;;;;;12.28;65.00;94939.00;5078268;28;20220;-63
2022/05/09 00:57:23;;;;;;;5.53;2.70;;;;;;;12.35;64.44;94946.94;5077964;28;20281;-59
2022/05/09 00:59:53;;;;;;;3.40;2.77;;;;;;;12.28;65.41;94936.47;5078579;28;20194;-61
2022/05/09 01:02:28;;;;;;;3.80;2.73;;;;;;;12.49;64.66;94941.44;5078034;28;20592;-61
2022/05/09 01:04:57;;;;;;;7.03;2.97;;;;;;;12.49;65.46;94936.34;5078335;28;20246;-60
2022/05/09 01:07:24;;;;;;;5.83;2.93;;;;;;;12.42;65.63;94932.72;5060101;28;20228;-63
2022/05/09 01:09:50;;;;;;;5.60;3.00;;;;;;;12.37;65.60;94934.88;5078393;28;20173;-62
2022/05/09 01:12:20;;;;;;;4.60;2.70;;;;;;;12.30;66.61;94921.84;5077953;28;20208;-63
2022/05/09 01:14:46;;;;;;;5.23;3.13;;;;;;;12.22;65.79;94934.44;5077997;28;20259;-63
2022/05/09 01:17:13;;;;;;;4.00;3.10;;;;;;;12.23;65.91;94933.53;5078174;28;20279;-60
2022/05/09 01:19:42;;;;;;;3.73;3.20;;;;;;;12.14;66.19;94929.22;5076428;28;20177;-62
2022/05/09 01:22:21;;;;;;;5.60;3.17;;;;;;;12.09;66.97;94921.16;5074866;28;20285;-64
2022/05/09 01:24:47;;;;;;;3.27;2.77;;;;;;;12.23;67.48;94913.13;5074858;28;20175;-61
2022/05/09 01:27:13;;;;;;;4.40;3.20;;;;;;;12.12;68.19;94907.38;5074497;28;20601;-60
2022/05/09 01:30:02;;;;;;;5.03;3.33;;;;;;;12.27;67.91;94919.56;5074660;28;20232;-60
2022/05/09 01:32:36;;;;;;;7.43;3.40;;;;;;;12.41;66.50;94937.03;5074683;28;20236;-61
2022/05/09 01:35:10;;;;;;;3.20;2.80;;;;;;;12.36;65.81;94934.06;5074870;28;20213;-62
2022/05/09 01:37:38;;;;;;;5.43;3.60;;;;;;;12.13;67.03;94931.91;5074443;28;20223;-62
2022/05/09 01:40:04;;;;;;;4.93;2.90;;;;;;;11.95;67.59;94925.84;5074550;28;20177;-61
2022/05/09 01:42:29;;;;;;;5.83;3.60;;;;;;;11.90;67.91;94918.56;5074423;28;20208;-60
2022/05/09 01:44:55;;;;;;;4.03;3.10;;;;;;;12.10;67.82;94924.53;5074361;28;20546;-61
2022/05/09 01:50:06;;;;;;;6.63;3.70;;;;;;;12.14;65.99;94944.50;5074873;28;20235;-59
2022/05/09 01:52:32;;;;;;;5.80;3.13;;;;;;;12.17;66.05;94945.97;5074415;28;20279;-62
2022/05/09 01:54:58;;;;;;;4.93;3.17;;;;;;;12.17;66.22;94951.91;5074467;28;20571;-63
2022/05/09 01:57:23;;;;;;;5.23;3.23;;;;;;;12.17;66.01;94940.88;5074137;28;20251;-60
2022/05/09 01:59:48;;;;;;;5.23;3.47;;;;;;;11.96;66.60;94937.66;5073929;28;20189;-62
2022/05/09 02:02:21;;;;;;;7.77;3.73;;;;;;;12.23;66.91;94932.72;5073925;28;20193;-62
2022/05/09 02:04:47;;;;;;;9.50;3.20;;;;;;;12.31;66.46;94937.94;5056488;28;20220;-63
2022/05/09 02:07:15;;;;;;;6.50;3.50;;;;;;;12.21;67.25;94922.66;5074259;28;20606;-63
2022/05/09 02:09:42;;;;;;;4.17;2.87;;;;;;;11.94;68.27;94904.63;5074169;28;20184;-62
2022/05/09 02:12:09;;;;;;;7.70;3.33;;;;;;;11.94;67.68;94926.78;5073948;28;20635;-60
2022/05/09 02:14:35;;;;;;;3.83;2.80;;;;;;;12.02;67.34;94932.81;5073828;28;20212;-61
2022/05/09 02:17:01;;;;;;;5.13;3.73;;;;;;;12.08;67.29;94929.72;5073508;28;20205;-62
2022/05/09 02:19:27;;;;;;;5.17;3.23;;;;;;;12.18;67.17;94947.63;5055802;28;20185;-60
2022/05/09 02:21:53;;;;;;;5.30;3.30;;;;;;;12.33;67.65;94936.06;5073556;28;20203;-64
2022/05/09 02:24:19;;;;;;;5.93;3.13;;;;;;;12.43;67.33;94950.44;5073659;28;20200;-62
2022/05/09 02:26:44;;;;;;;3.33;2.77;;;;;;;12.68;66.72;94972.06;5055466;28;20682;-60
2022/05/09 02:29:10;;;;;;;5.40;3.40;;;;;;;12.51;67.19;94948.03;5073619;28;20177;-63
2022/05/09 02:31:35;;;;;;;7.00;3.20;;;;;;;12.37;68.13;94945.06;5073310;28;20271;-62
2022/05/09 02:34:01;;;;;;;8.20;3.90;;;;;;;12.43;67.86;94939.44;5073537;28;20200;-64
2022/05/09 02:36:28;;;;;;;7.43;3.57;;;;;;;12.27;67.92;94947.63;5073338;28;20536;-62
2022/05/09 02:38:54;;;;;;;7.47;3.90;;;;;;;11.69;68.07;94933.97;5073549;28;20184;-60
2022/05/09 02:41:19;;;;;;;8.03;4.30;;;;;;;11.75;68.67;94940.28;5073138;28;20181;-60
2022/05/09 02:43:45;;;;;;;7.13;3.77;;;;;;;11.89;68.89;94936.53;5073067;28;20605;-62
2022/05/09 02:46:11;;;;;;;7.27;3.30;;;;;;;11.92;68.41;94946.50;5073088;28;20212;-62
2022/05/09 02:48:37;;;;;;;7.27;3.63;;;;;;;12.22;68.89;94944.63;5073212;28;20205;-63
2022/05/09 02:51:06;;;;;;;8.80;4.03;;;;;;;12.11;68.84;94941.41;5055167;28;20192;-63
2022/05/09 02:53:32;;;;;;;6.83;3.77;;;;;;;12.08;68.55;94956.97;5072783;28;20280;-63
2022/05/09 02:55:57;;;;;;;6.53;3.73;;;;;;;11.95;68.53;94956.41;5073216;28;20621;-66
2022/05/09 02:58:23;;;;;;;7.03;3.73;;;;;;;11.96;68.71;94958.03;5072842;28;20233;-60
2022/05/09 03:00:48;;;;;;;5.63;3.23;;;;;;;11.84;68.44;94953.97;5073330;28;20216;-61
2022/05/09 03:05:58;;;;;;;5.13;3.37;;;;;;;11.68;70.15;94937.44;5073258;28;20743;-67
2022/05/09 03:08:24;;;;;;;8.30;3.73;;;;;;;11.81;69.64;94949.94;5072873;28;20662;-59
2022/05/09 03:10:50;;;;;;;8.97;3.67;;;;;;;12.01;68.64;94969.44;5073116;28;20256;-60
2022/05/09 03:13:16;;;;;;;9.13;3.70;;;;;;;12.08;68.22;94982.47;5072623;28;20291;-59
2022/05/09 03:15:45;;;;;;;8.77;3.90;;;;;;;11.82;69.30;94965.09;5072747;28;20213;-63
2022/05/09 03:18:12;;;;;;;5.20;3.67;;;;;;;11.72;68.64;94979.53;5072378;28;20220;-59
2022/05/09 03:20:38;;;;;;;7.43;4.10;;;;;;;11.65;69.01;94970.78;5072871;28;20188;-60
2022/05/09 03:23:05;;;;;;;9.20;3.27;;;;;;;11.42;68.87;94976.16;5054319;28;20396;-59
2022/05/09 03:25:33;;;;;;;4.40;3.17;;;;;;;11.23;68.28;94987.03;5054567;28;20193;-62
2022/05/09 03:27:59;;;;;;;5.37;3.30;;;;;;;11.14;68.61;94979.34;5072368;28;20212;-62
2022/05/09 03:30:24;;;;;;;10.20;3.43;;;;;;;11.08;69.08;94975.56;5072672;28;20193;-61
2022/05/09 03:32:52;;;;;;;6.43;3.30;;;;;;;10.91;70.10;94968.50;5072402;28;20247;-60
2022/05/09 03:35:18;;;;;;;16.30;4.47;;;;;;;10.88;70.98;94958.59;5072418;28;20209;-63
2022/05/09 03:37:44;;;;;;;5.50;3.40;;;;;;;10.71;71.51;94949.75;5072123;28;20200;-61
2022/05/09 03:40:10;;;;;;;5.53;3.00;;;;;;;10.65;71.84;94957.06;5054337;28;20185;-61
2022/05/09 03:42:36;;;;;;;7.30;3.87;;;;;;;10.70;73.07;94949.91;5071855;28;20193;-61
2022/05/09 03:45:02;;;;;;;8.00;3.33;;;;;;;10.52;73.46;94942.00;5072227;28;20207;-65
2022/05/09 03:47:27;;;;;;;6.73;3.33;;;;;;;10.46;73.49;94951.84;5072217;28;20242;-62
2022/05/09 03:49:55;;;;;;;7.63;3.73;;;;;;;10.45;72.99;94951.03;5079406;22;20235;-69
2022/05/09 03:52:21;;;;;;;9.67;3.70;;;;;;;10.66;73.03;94963.78;5079056;22;20702;-62
2022/05/09 03:54:46;;;;;;;5.17;3.87;;;;;;;10.69;73.62;94953.34;5071935;28;20731;-63
2022/05/09 03:57:12;;;;;;;7.53;3.57;;;;;;;10.79;73.36;94965.22;5072427;28;20201;-61
2022/05/09 03:59:37;;;;;;;4.83;3.70;;;;;;;10.83;73.48;94960.69;5072108;28;20566;-59
2022/05/09 04:02:03;;;;;;;6.20;3.83;;;;;;;10.81;71.65;94982.88;5072008;28;20292;-62
2022/05/09 04:04:28;;;;;;;7.03;4.10;;;;;;;10.87;71.13;94984.94;5072131;28;20176;-61
2022/05/09 04:06:54;;;;;;;8.87;3.67;;;;;;;10.77;72.05;94972.16;5072122;28;20301;-63
2022/05/09 04:09:19;;;;;;;3.97;2.83;;;;;;;10.73;70.09;95000.50;5071766;28;20205;-61
2022/05/09 04:11:47;;;;;;;4.77;3.03;;;;;;;10.76;70.29;94993.44;5053784;28;20239;-62
2022/05/09 04:14:13;;;;;;;7.53;3.60;;;;;;;10.81;70.40;95000.69;5071651;28;20204;-62
2022/05/09 04:19:15;;;;;;;4.53;3.70;;;;;;;10.88;69.17;95017.91;5079089;22;20220;-60
2022/05/09 04:21:40;;;;;;;7.90;3.43;;;;;;;10.90;69.44;95015.22;5071638;28;20310;-63
2022/05/09 04:24:06;;;;;;;4.97;2.90;;;;;;;10.81;69.48;95010.84;5072112;28;20189;-63
2022/05/09 04:26:31;;;;;;;4.20;3.03;;;;;;;10.80;70.95;94983.81;5071593;28;20606;-59
2022/05/09 04:28:58;;;;;;;9.30;3.27;;;;;;;11.16;70.67;94997.84;5072170;28;20277;-61
2022/05/09 04:31:24;;;;;;;6.40;3.43;;;;;;;11.25;70.47;95004.75;5071603;28;20181;-59
2022/05/09 04:33:50;;;;;;;6.33;4.03;;;;;;;11.25;70.84;95002.97;5072057;28;20611;-62
2022/05/09 04:36:15;;;;;;;7.37;3.63;;;;;;;11.29;70.83;94999.25;5053466;28;20243;-60
2022/05/09 04:38:43;;;;;;;6.57;3.90;;;;;;;11.05;72.19;94975.03;5053655;28;20201;-59
2022/05/09 04:41:10;;;;;;;11.87;10.47;;;;;;;11.76;100.00;94992.81;5071599;28;20189;-60
2022/05/09 04:43:36;;;;;;;8.37;4.10;;;;;;;11.97;79.42;95046.25;5078632;22;20228;-63
2022/05/09 04:46:04;;;;;;;5.93;3.57;;;;;;;12.22;70.56;95115.41;5071449;28;20203;-63
2022/05/09 04:48:30;;;;;;;4.37;3.40;;;;;;;12.16;68.94;95110.84;5071317;28;20224;-62
2022/05/09 04:50:57;;;;;;;4.57;2.67;;;;;;;11.80;68.15;95117.25;5071459;28;20181;-62
2022/05/09 04:53:24;;;;;;;4.50;3.50;;;;;;;11.74;69.85;95077.00;5071592;28;20230;-62
2022/05/09 04:55:49;;;;;;;7.70;4.03;;;;;;;11.59;71.68;95057.88;5073022;28;20273;-62
2022/05/09 04:58:18;;;;;;;6.87;3.90;;;;;;;11.41;73.81;95033.88;5075251;28;20197;-63
2022/05/09 05:00:45;;;;;;;6.93;3.93;;;;;;;11.14;75.92;95015.78;5075208;28;20181;-60
2022/05/09 05:03:11;;;;;;;6.23;4.57;;;;;;;11.27;75.36;95036.75;5074894;28;20296;-59
2022/05/09 05:05:37;;;;;;;7.07;4.50;;;;;;;11.19;76.62;95012.88;5074927;28;20181;-60
2022/05/09 05:08:04;;;;;;;13.63;4.60;;;;;;;11.12;77.77;95006.66;5074989;28;20297;-61
2022/05/09 05:10:30;;;;;;;7.83;5.23;;;;;;;11.28;78.19;95017.19;5074707;28;20219;-62
2022/05/09 05:12:58;;;;;;;6.67;4.10;;;;;;;11.48;79.07;95011.28;5056921;28;20252;-62
2022/05/09 05:15:24;;;;;;;19.60;7.87;;;;;;;12.39;100.00;95017.94;5074729;28;20199;-60
2022/05/09 05:17:50;;;;;;;15.93;7.10;;;;;;;13.10;100.00;95021.06;5075101;28;20235;-61
2022/05/09 05:20:16;;;;;;;8.87;4.67;;;;;;;13.05;95.54;95102.38;5074596;28;20201;-60
2022/05/09 05:22:47;;;;;;;7.73;4.50;;;;;;;13.06;87.90;95190.75;5074934;28;20205;-60
2022/05/09 05:25:14;;;;;;;12.87;4.87;;;;;;;12.88;88.18;95147.16;5074728;28;20157;-64
2022/05/09 05:27:39;;;;;;;8.43;4.97;;;;;;;12.87;88.07;95140.44;5056472;28;20243;-60
2022/05/09 05:30:06;;;;;;;6.73;5.13;;;;;;;12.74;90.64;95098.25;5056416;28;20208;-60
2022/05/09 05:32:36;;;;;;;12.80;5.17;;;;;;;12.41;91.55;95077.25;5056817;28;20685;-62
2022/05/09 05:35:04;;;;;;;11.30;5.70;;;;;;;12.44;90.11;95117.00;5056311;28;20193;-60
2022/05/09 05:37:29;;;;;;;14.13;4.87;;;;;;;12.43;89.74;95110.25;5074658;28;20201;-61
2022/05/09 05:39:57;;;;;;;7.03;5.43;;;;;;;12.49;89.97;95107.19;5074532;28;20222;-63
2022/05/09 05:42:23;;;;;;;13.60;5.63;;;;;;;12.28;91.09;95091.19;5056196;28;20262;-61
2022/05/09 05:44:49;;;;;;;10.73;5.20;;;;;;;12.16;92.79;95066.72;5056210;28;20212;-60
2022/05/09 05:47:18;;;;;;;12.83;5.23;;;;;;;12.38;93.93;95052.00;5074896;28;20220;-60
2022/05/09 05:49:43;;;;;;;9.30;5.30;;;;;;;12.62;92.96;95074.63;5074668;28;20244;-59
2022/05/09 05:52:11;;;;;;;12.37;5.33;;;;;;;12.73;91.30;95094.91;5074374;28;20197;-61
2022/05/09 05:54:40;;;;;;;9.63;6.20;;;;;;;13.03;90.82;95102.44;5073897;28;20204;-60
2022/05/09 05:57:27;;;;;;;13.80;5.90;;;;;;;13.06;88.30;95145.63;5074211;28;20291;-61
2022/05/09 05:59:55;;;;;;;9.80;5.40;;;;;;;12.95;89.79;95097.22;5056057;28;20191;-63
2022/05/09 06:02:21;;;;;;;12.83;5.47;;;;;;;12.76;90.32;95097.19;5056106;28;20224;-60
2022/05/09 06:04:47;;;;;;;12.00;5.67;;;;;;;12.60;90.91;95096.91;5073876;28;20264;-60
2022/05/09 06:07:13;;;;;;;12.87;5.40;;;;;;;12.97;89.84;95114.97;5055658;28;20339;-65
2022/05/09 06:09:40;;;;;;;12.83;5.57;;;;;;;13.04;87.42;95144.13;5055929;28;20177;-60
2022/05/09 06:12:07;;;;;;;10.00;5.93;;;;;;;13.09;89.72;95108.81;5073998;28;20205;-64
2022/05/09 06:14:33;;;;;;;12.00;5.30;;;;;;;13.30;87.91;95138.38;5055492;28;20713;-63
2022/05/09 06:16:59;;;;;;;11.07;6.23;;;;;;;13.13;89.00;95121.16;5073905;28;20200;-59
2022/05/09 06:19:24;;;;;;;10.23;5.50;;;;;;;13.14;88.34;95132.19;5073592;28;20169;-64
2022/05/09 06:21:50;;;;;;;15.70;6.20;;;;;;;13.21;88.88;95120.50;5073877;28;20309;-60
2022/05/09 06:24:17;;;;;;;11.88;5.15;;;;;;;13.20;87.88;95140.13;5073437;28;20202;-63
2022/05/09 06:26:44;;;;;;;11.33;6.03;;;;;;;13.53;88.95;95120.22;5073832;28;20633;-63
2022/05/09 06:29:10;;;;;;;7.50;5.30;;;;;;;13.59;85.51;95176.69;5073612;28;20179;-60
2022/05/09 06:31:37;;;;;;;14.10;6.43;;;;;;;13.82;87.16;95152.44;5073308;28;20204;-61
2022/05/09 06:34:04;;;;;;;16.48;5.78;;;;;;;13.85;84.44;95185.41;5073300;28;20173;-60
2022/05/09 06:36:34;;;;;;;10.43;5.35;;;;;;;13.97;83.77;95191.16;5055140;28;20659;-61
2022/05/09 06:38:59;;;;;;;8.70;5.35;;;;;;;14.03;83.97;95182.94;5073279;28;20196;-62
2022/05/09 06:41:25;;;;;;;12.32;5.40;;;;;;;14.20;83.75;95177.13;5072831;28;20181;-61
2022/05/09 06:43:50;;;;;;;11.90;5.80;;;;;;;14.09;83.92;95178.09;5038902;28;20669;-61
2022/05/09 06:46:16;;;;;;;10.30;6.25;;;;;;;14.38;82.15;95208.75;5072904;28;20189;-61
2022/05/09 06:48:41;;;;;;;11.98;6.05;;;;;;;14.51;81.06;95223.78;5073070;28;20185;-60
2022/05/09 06:51:07;;;;;;;9.23;5.32;;;;;;;14.41;81.88;95192.28;5072787;28;20181;-60
2022/05/09 06:53:32;;;;;;;16.55;5.40;;;;;;;14.52;82.64;95175.03;5072645;28;20205;-60
2022/05/09 06:55:58;;;;;;;13.50;4.97;;;;;;;14.45;82.69;95173.16;5072768;28;20197;-60
2022/05/09 06:58:27;;;;;;;9.93;5.35;;;;;;;14.68;81.37;95198.28;5072604;28;20208;-61
2022/05/09 07:00:53;;;;;;;10.93;5.55;;;;;;;14.82;84.29;95145.78;5073102;28;20647;-63
2022/05/09 07:03:20;;;;;;;12.65;5.68;;;;;;;14.93;80.79;95207.84;5054611;28;20205;-63
2022/05/09 07:05:48;;;;;;;15.25;5.93;;;;;;;15.01;80.89;95200.25;5072560;28;20196;-61
2022/05/09 07:08:14;;;;;;;9.93;6.38;;;;;;;15.07;82.22;95171.50;5072862;28;20564;-61
2022/05/09 07:10:39;;;;;;;16.45;6.80;;;;;;;15.22;80.76;95199.19;5072617;28;20204;-61
2022/05/09 07:13:06;;;;;;;8.85;5.85;;;;;;;15.38;79.29;95214.72;5072658;28;20196;-61
2022/05/09 07:15:33;;;;;;;11.65;5.82;;;;;;;15.44;77.68;95234.66;5072618;28;20220;-61
2022/05/09 07:17:59;;;;;;;12.02;5.38;;;;;;;15.49;78.08;95227.38;5072029;28;20291;-60
2022/05/09 07:20:27;;;;;;;13.90;6.18;;;;;;;15.47;79.82;95180.59;5072572;28;20260;-61
2022/05/09 07:22:55;;;;;;;10.85;5.93;;;;;;;15.33;76.69;95227.97;5072977;28;20284;-61
2022/05/09 07:25:23;;;;;;;18.90;6.43;;;;;;;15.61;77.55;95215.94;5072476;28;20185;-61
2022/05/09 07:27:48;;;;;;;10.07;4.95;;;;;;;15.86;76.99;95225.44;5072731;28;20705;-60
2022/05/09 07:30:20;;;;;;;11.63;5.38;;;;;;;15.97;71.62;95261.13;5079661;22;20232;-61
2022/05/09 07:32:46;;;;;;;9.30;5.55;;;;;;;16.09;71.40;95265.09;5071961;28;20200;-61
2022/05/09 07:35:16;;;;;;;8.38;5.55;;;;;;;16.17;72.42;95239.50;5072382;28;20250;-63
2022/05/09 07:37:41;;;;;;;9.25;4.88;;;;;;;16.12;72.08;95226.28;5072089;28;20713;-64
2022/05/09 07:40:11;;;;;;;10.05;4.90;;;;;;;16.26;67.66;95238.59;5072573;28;20691;-62
2022/05/09 07:42:37;;;;;;;7.88;4.53;;;;;;;16.34;65.19;95261.72;5072175;28;20717;-60
2022/05/09 07:45:04;;;;;;;5.60;3.70;;;;;;;16.47;62.27;95310.94;5072372;28;20188;-61
2022/05/09 07:47:31;;;;;;;7.60;4.05;;;;;;;16.48;61.37;95315.09;5053766;28;20346;-62
2022/05/09 07:49:56;;;;;;;4.75;3.50;;;;;;;16.81;59.16;95330.78;5072066;28;20242;-62
2022/05/09 07:52:23;;;;;;;12.45;3.80;;;;;;;16.90;58.36;95304.97;5072273;28;20193;-60
2022/05/09 07:54:48;;;;;;;7.57;3.80;;;;;;;16.97;57.48;95298.25;5072565;28;20292;-63
2022/05/09 07:57:15;;;;;;;8.07;3.92;;;;;;;17.13;57.76;95277.78;5071749;28;20284;-60
2022/05/09 07:59:41;;;;;;;7.50;3.38;;;;;;;17.39;58.51;95250.25;5071911;28;20215;-62
2022/05/09 08:02:07;;;;;;;5.95;3.13;;;;;;;17.57;56.75;95299.03;5071617;28;20201;-64
2022/05/09 08:04:33;;;;;;;8.30;2.75;;;;;;;17.63;56.70;95283.00;5072262;28;20211;-60
2022/05/09 08:06:58;;;;;;;6.43;2.70;;;;;;;17.61;54.03;95321.69;5071723;28;20283;-60
2022/05/09 08:09:24;;;;;;;8.25;2.67;;;;;;;17.65;54.16;95301.63;5071920;28;20263;-62
2022/05/09 08:11:49;;;;;;;4.70;2.50;;;;;;;17.79;53.28;95324.19;5071543;28;20642;-62
2022/05/09 08:14:16;;;;;;;9.55;2.92;;;;;;;17.81;53.09;95311.97;5071857;28;20180;-64
2022/05/09 08:16:43;;;;;;;7.47;2.50;;;;;;;17.80;52.53;95324.97;5053718;28;20220;-60
2022/05/09 08:19:11;;;;;;;7.53;3.33;;;;;;;17.87;55.63;95234.16;5071510;28;20698;-64
2022/05/09 08:21:37;;;;;;;6.22;2.72;;;;;;;17.98;56.63;95226.09;5071649;28;20782;-61
2022/05/09 08:24:04;;;;;;;8.70;3.30;;;;;;;17.91;54.52;95270.66;5071573;28;20184;-60
2022/05/09 08:26:31;;;;;;;12.75;3.13;;;;;;;18.18;54.28;95268.56;5071303;28;20173;-61
2022/05/09 08:28:56;;;;;;;10.07;3.83;;;;;;;18.24;55.48;95236.25;5072240;28;20201;-61
2022/05/09 08:31:23;;;;;;;8.65;3.30;;;;;;;18.18;55.40;95240.25;5075787;28;20173;-62
2022/05/09 08:33:50;;;;;;;8.70;3.88;;;;;;;18.22;52.61;95303.31;5075888;28;20196;-61
2022/05/09 08:36:45;;;;;;;5.43;3.25;;;;;;;18.19;54.65;95247.03;5075360;28;20243;-61
2022/05/09 08:39:06;;;;;;;4.13;2.92;;;;;;;18.44;51.48;95320.72;5075405;28;20185;-61
2022/05/09 08:41:54;;;;;;;8.45;3.33;;;;;;;18.75;52.34;95279.66;5075400;28;20256;-62
2022/05/09 08:44:29;;;;;;;9.98;3.38;;;;;;;18.89;53.66;95254.97;5075900;28;20598;-63
2022/05/09 08:47:18;;;;;;;9.07;2.85;;;;;;;19.10;53.05;95270.72;5075472;28;20199;-61
2022/05/09 08:49:44;;;;;;;6.65;3.10;;;;;;;19.07;52.96;95274.41;5076229;28;20189;-63
2022/05/09 08:52:18;;;;;;;6.20;2.47;;;;;;;19.19;55.06;95203.47;5075198;28;20189;-65
2022/05/09 08:54:44;;;;;;;7.32;2.83;;;;;;;19.26;54.59;95219.09;5057348;28;20250;-65
2022/05/09 08:57:19;;;;;;;7.25;2.92;;;;;;;19.58;52.60;95269.72;5075332;28;20196;-66
2022/05/09 08:59:58;;;;;;;6.97;3.53;;;;;;;19.73;50.21;95317.88;5075566;28;20184;-65
2022/05/09 09:02:30;;;;;;;13.13;3.90;;;;;;;19.67;49.07;95326.28;5058802;28;20208;-62
2022/05/09 09:04:58;;;;;;;12.45;3.30;;;;;;;19.64;48.18;95339.50;5075514;28;20258;-62
2022/05/09 09:07:42;;;;;;;6.55;2.35;;;;;;;19.67;46.46;95354.66;5056962;28;20218;-61
2022/05/09 09:10:24;;;;;;;8.35;3.00;;;;;;;19.55;43.85;95342.28;5057047;28;20184;-61
2022/05/09 09:13:06;;;;;;;12.10;3.78;;;;;;;19.09;43.62;95330.94;5074723;28;20204;-60
2022/05/09 09:15:53;;;;;;;6.40;2.38;;;;;;;19.38;45.71;95273.69;5074800;28;20254;-60
2022/05/09 09:18:23;;;;;;;8.60;2.63;;;;;;;19.88;49.26;95201.78;5056632;28;20709;-61
2022/05/09 09:21:00;;;;;;;5.45;2.67;;;;;;;20.19;48.15;95235.25;5074673;28;20169;-60
2022/05/09 09:23:44;;;;;;;3.58;2.13;;;;;;;20.66;49.69;95187.56;5074652;28;20287;-62
2022/05/09 09:26:33;;;;;;;4.07;2.20;;;;;;;20.98;47.65;95219.97;5074469;28;20275;-65
2022/05/09 09:29:08;;;;;;;5.13;1.90;;;;;;;21.14;39.90;95354.31;5075126;28;20549;-64
2022/05/09 09:31:36;;;;;;;5.15;2.28;;;;;;;21.28;43.37;95262.97;5074436;28;20208;-61
2022/05/09 09:34:16;;;;;;;2.40;1.75;;;;;;;21.30;39.06;95273.13;5074294;28;20177;-61
2022/05/09 09:36:54;;;;;;;6.32;2.20;;;;;;;21.04;34.94;95247.75;5074211;28;20193;-63
2022/05/09 09:39:20;;;;;;;4.28;2.53;;;;;;;21.31;40.38;95138.44;5074820;28;20264;-61
2022/05/09 09:41:48;;;;;;;6.47;2.60;;;;;;;21.45;37.88;95184.16;5073269;28;20330;-62
2022/05/09 09:44:19;;;;;;;6.50;2.00;;;;;;;21.74;36.79;95211.72;5074605;28;20199;-61
2022/05/09 09:47:06;;;;;;;4.18;1.52;;;;;;;21.82;34.75;95224.56;5074120;28;20197;-64
2022/05/09 09:49:38;;;;;;;3.80;1.55;;;;;;;21.69;34.45;95225.22;5074411;28;20256;-64
2022/05/09 09:52:15;;;;;;;6.32;1.85;;;;;;;21.96;39.30;95129.72;5074274;28;20212;-61
2022/05/09 09:54:49;;;;;;;3.60;1.65;;;;;;;22.37;39.02;95146.94;5074327;28;20278;-62
2022/05/09 09:57:25;;;;;;;4.80;2.22;;;;;;;22.68;38.10;95161.31;5074292;28;20208;-62
2022/05/09 09:59:51;;;;;;;5.03;1.98;;;;;;;22.63;37.28;95169.66;5056222;28;20185;-63
2022/05/09 10:02:29;;;;;;;7.60;2.08;;;;;;;22.58;34.79;95208.31;5073898;28;20196;-60
2022/05/09 10:07:44;;;;;;;1.90;1.65;;;;;;;23.22;36.75;95160.34;5074048;28;20196;-62
2022/05/09 10:10:21;;;;;;;3.42;1.58;;;;;;;23.50;35.71;95185.41;5074042;28;20189;-62
2022/05/09 10:12:54;;;;;;;6.30;1.67;;;;;;;23.73;34.70;95197.06;5073287;28;20623;-61
2022/05/09 10:15:39;;;;;;;4.00;2.00;;;;;;;23.84;36.47;95147.13;5073425;28;20745;-63
2022/05/09 10:18:18;;;;;;;4.88;1.90;;;;;;;23.73;33.95;95185.88;5073691;28;20212;-62
2022/05/09 10:20:44;;;;;;;3.88;1.73;;;;;;;24.05;34.76;95175.56;5073574;28;20181;-62
2022/05/09 10:26:20;;;;;;;4.57;1.63;;;;;;;23.47;29.05;95242.91;5073604;28;20208;-61
2022/05/09 10:28:48;;;;;;;7.10;1.88;;;;;;;23.98;32.30;95169.50;5073494;28;20630;-65
2022/05/09 10:31:40;;;;;;;8.43;2.10;;;;;;;24.02;32.70;95160.31;5055243;28;20177;-61
2022/05/09 10:34:15;;;;;;;5.32;2.20;;;;;;;24.03;32.47;95167.16;5073496;28;20189;-61
2022/05/09 10:36:51;;;;;;;6.35;1.90;;;;;;;24.06;33.17;95145.16;5055278;28;20279;-62
2022/05/09 10:39:26;;;;;;;5.63;2.00;;;;;;;24.40;30.91;95181.31;5073492;28;20242;-61
2022/05/09 10:42:00;;;;;;;7.88;1.50;;;;;;;23.90;29.44;95211.25;5072924;28;20704;-61
2022/05/09 10:44:41;;;;;;;3.50;1.42;;;;;;;23.52;29.24;95196.41;5073371;28;20235;-65
2022/05/09 10:47:19;;;;;;;4.95;1.75;;;;;;;23.26;29.87;95164.16;5054850;28;20196;-62
2022/05/09 10:49:57;;;;;;;4.65;1.70;;;;;;;23.55;31.75;95141.50;5055161;28;20651;-62
2022/05/09 10:52:46;;;;;;;6.85;1.77;;;;;;;23.38;30.18;95167.00;5072856;28;20193;-60
2022/05/09 10:55:26;;;;;;;4.57;2.03;;;;;;;23.84;31.09;95146.31;5072738;28;20691;-61
2022/05/09 10:58:07;;;;;;;4.55;1.77;;;;;;;23.24;29.39;95166.16;5072642;28;20197;-59
2022/05/09 11:00:40;;;;;;;1.83;1.60;;;;;;;23.82;27.58;95195.06;5072494;28;20243;-63
2022/05/09 11:03:25;;;;;;;6.03;1.70;;;;;;;24.06;28.47;95165.94;5054594;28;20291;-61
2022/05/09 11:06:12;;;;;;;4.10;1.50;;;;;;;23.87;30.01;95135.53;5072651;28;20169;-62
2022/05/09 11:08:51;;;;;;;5.63;1.75;;;;;;;24.09;28.50;95155.97;5072631;28;20224;-61
2022/05/09 11:11:28;;;;;;;3.55;1.85;;;;;;;23.90;30.03;95130.75;5072522;28;20166;-63
2022/05/09 11:14:20;;;;;;;4.28;1.60;;;;;;;24.59;29.63;95130.28;5072213;28;20719;-63
2022/05/09 11:16:52;;;;;;;2.88;1.50;;;;;;;25.12;30.28;95121.34;5068172;28;20354;-62
2022/05/09 11:19:39;;;;;;;4.63;1.83;;;;;;;24.76;28.12;95163.50;5054484;28;20193;-62
2022/05/09 11:22:25;;;;;;;4.03;1.55;;;;;;;24.45;28.42;95145.13;5072558;28;20212;-62
2022/05/09 11:25:21;;;;;;;2.25;1.42;;;;;;;24.70;26.79;95159.09;5072625;28;20173;-62
2022/05/09 11:28:02;;;;;;;3.38;1.20;;;;;;;24.91;26.35;95165.84;5072208;28;20193;-63
2022/05/09 11:30:42;;;;;;;1.38;1.13;;;;;;;25.02;25.86;95156.59;5072226;28;20180;-63
2022/05/09 11:33:30;;;;;;;4.30;1.55;;;;;;;25.43;25.51;95144.81;5072404;28;20659;-63
2022/05/09 11:36:02;;;;;;;5.55;1.88;;;;;;;25.55;25.41;95156.16;5072253;28;20757;-62
2022/05/09 11:38:51;;;;;;;3.67;1.38;;;;;;;25.86;25.23;95147.56;5072197;28;20217;-62
2022/05/09 11:41:35;;;;;;;2.00;1.25;;;;;;;25.64;25.35;95141.91;5053983;28;20252;-62
2022/05/09 11:44:32;;;;;;;1.25;1.00;;;;;;;24.90;24.50;95140.84;5072004;28;20189;-63
2022/05/09 11:47:08;;;;;;;3.42;1.20;;;;;;;25.52;24.76;95135.75;5071953;28;20295;-62
2022/05/09 11:50:07;;;;;;;4.53;1.10;;;;;;;25.89;22.42;95173.22;5072434;28;20176;-62
2022/05/09 11:52:44;;;;;;;1.85;1.27;;;;;;;25.58;22.96;95128.91;5071837;28;20205;-62
2022/05/09 11:55:22;;;;;;;6.05;1.90;;;;;;;25.87;22.75;95135.31;5053923;28;20219;-63
2022/05/09 11:57:56;;;;;;;1.17;0.98;;;;;;;26.28;24.26;95106.94;5053668;28;20209;-62